sensor_id;sensor_type;location;lat;lon;timestamp;P1;durP1;ratioP1;P2;durP2;ratioP2
60969;SDS011;46841;48.938;9.502;2023-08-20T00:00:34;0.10;;;0.10;;
60969;SDS011;46841;48.938;9.502;2023-08-20T00:03:58;0.10;;;0.10;;
60969;SDS011;46841;48.938;9.502;2023-08-20T00:07:22;0.10;;;0.10;;
60969;SDS011;46841;48.938;9.502;2023-08-20T00:10:46;0.10;;;0.10;;
60969;SDS011;46841;48.938;9.502;2023-08-20T00:14:15;0.10;;;0.10;;
60969;SDS011;46841;48.938;9.502;2023-08-20T00:17:39;0.10;;;0.10;;
60969;SDS011;46841;48.938;9.502;2023-08-20T00:21:04;0.10;;;0.10;;
60969;SDS011;46841;48.938;9.502;2023-08-20T00:24:28;0.10;;;0.10;;
60969;SDS011;46841;48.938;9.502;2023-08-20T00:27:52;0.10;;;0.10;;
60969;SDS011;46841;48.938;9.502;2023-08-20T00:31:16;0.10;;;0.10;;
60969;SDS011;46841;48.938;9.502;2023-08-20T00:34:40;0.10;;;0.10;;
60969;SDS011;46841;48.938;9.502;2023-08-20T00:38:04;0.10;;;0.10;;
60969;SDS011;46841;48.938;9.502;2023-08-20T00:41:29;0.10;;;0.10;;
60969;SDS011;46841;48.938;9.502;2023-08-20T00:44:53;0.10;;;0.10;;
60969;SDS011;46841;48.938;9.502;2023-08-20T00:48:17;0.10;;;0.10;;
60969;SDS011;46841;48.938;9.502;2023-08-20T00:51:42;0.10;;;0.10;;
60969;SDS011;46841;48.938;9.502;2023-08-20T00:55:07;0.10;;;0.10;;
60969;SDS011;46841;48.938;9.502;2023-08-20T00:58:32;0.10;;;0.10;;
60969;SDS011;46841;48.938;9.502;2023-08-20T01:01:57;0.10;;;0.10;;
60969;SDS011;46841;48.938;9.502;2023-08-20T01:05:21;0.10;;;0.10;;
60969;SDS011;46841;48.938;9.502;2023-08-20T01:12:28;0.10;;;0.10;;
60969;SDS011;46841;48.938;9.502;2023-08-20T01:15:52;0.10;;;0.10;;
60969;SDS011;46841;48.938;9.502;2023-08-20T01:19:17;0.10;;;0.10;;
60969;SDS011;46841;48.938;9.502;2023-08-20T01:26:42;0.10;;;0.10;;
60969;SDS011;46841;48.938;9.502;2023-08-20T01:30:29;0.10;;;0.10;;
60969;SDS011;46841;48.938;9.502;2023-08-20T01:33:54;0.10;;;0.10;;
60969;SDS011;46841;48.938;9.502;2023-08-20T01:37:18;0.10;;;0.10;;
60969;SDS011;46841;48.938;9.502;2023-08-20T01:40:42;0.10;;;0.10;;
60969;SDS011;46841;48.938;9.502;2023-08-20T01:44:06;0.10;;;0.10;;
60969;SDS011;46841;48.938;9.502;2023-08-20T01:47:31;0.10;;;0.10;;
60969;SDS011;46841;48.938;9.502;2023-08-20T01:50:55;0.10;;;0.10;;
60969;SDS011;46841;48.938;9.502;2023-08-20T01:54:19;0.10;;;0.10;;
60969;SDS011;46841;48.938;9.502;2023-08-20T01:57:43;0.10;;;0.10;;
60969;SDS011;46841;48.938;9.502;2023-08-20T02:01:07;0.10;;;0.10;;
60969;SDS011;46841;48.938;9.502;2023-08-20T02:04:32;0.10;;;0.10;;
60969;SDS011;46841;48.938;9.502;2023-08-20T02:07:56;0.10;;;0.10;;
60969;SDS011;46841;48.938;9.502;2023-08-20T02:11:22;0.10;;;0.10;;
60969;SDS011;46841;48.938;9.502;2023-08-20T02:14:46;0.10;;;0.10;;
60969;SDS011;46841;48.938;9.502;2023-08-20T02:18:10;0.10;;;0.10;;
60969;SDS011;46841;48.938;9.502;2023-08-20T02:21:34;0.10;;;0.10;;
60969;SDS011;46841;48.938;9.502;2023-08-20T02:24:59;0.13;;;0.13;;
60969;SDS011;46841;48.938;9.502;2023-08-20T02:28:23;0.10;;;0.10;;
60969;SDS011;46841;48.938;9.502;2023-08-20T02:31:47;0.10;;;0.10;;
60969;SDS011;46841;48.938;9.502;2023-08-20T02:35:11;0.10;;;0.10;;
60969;SDS011;46841;48.938;9.502;2023-08-20T02:38:35;0.10;;;0.10;;
60969;SDS011;46841;48.938;9.502;2023-08-20T02:42:00;0.10;;;0.10;;
60969;SDS011;46841;48.938;9.502;2023-08-20T02:45:24;0.10;;;0.10;;
60969;SDS011;46841;48.938;9.502;2023-08-20T02:48:48;0.10;;;0.10;;
60969;SDS011;46841;48.938;9.502;2023-08-20T02:52:12;0.10;;;0.10;;
60969;SDS011;46841;48.938;9.502;2023-08-20T02:55:36;0.10;;;0.10;;
60969;SDS011;46841;48.938;9.502;2023-08-20T02:59:00;0.10;;;0.10;;
60969;SDS011;46841;48.938;9.502;2023-08-20T03:02:24;0.10;;;0.10;;
60969;SDS011;46841;48.938;9.502;2023-08-20T03:05:49;0.10;;;0.10;;
60969;SDS011;46841;48.938;9.502;2023-08-20T03:09:12;0.10;;;0.10;;
60969;SDS011;46841;48.938;9.502;2023-08-20T03:12:36;0.10;;;0.10;;
60969;SDS011;46841;48.938;9.502;2023-08-20T03:16:00;0.13;;;0.13;;
60969;SDS011;46841;48.938;9.502;2023-08-20T03:19:24;0.10;;;0.10;;
60969;SDS011;46841;48.938;9.502;2023-08-20T03:22:48;0.10;;;0.10;;
60969;SDS011;46841;48.938;9.502;2023-08-20T03:26:12;0.20;;;0.20;;
60969;SDS011;46841;48.938;9.502;2023-08-20T03:29:36;0.10;;;0.10;;
60969;SDS011;46841;48.938;9.502;2023-08-20T03:33:01;0.20;;;0.20;;
60969;SDS011;46841;48.938;9.502;2023-08-20T03:36:25;0.15;;;0.15;;
60969;SDS011;46841;48.938;9.502;2023-08-20T03:39:50;0.10;;;0.10;;
60969;SDS011;46841;48.938;9.502;2023-08-20T03:43:14;0.10;;;0.10;;
60969;SDS011;46841;48.938;9.502;2023-08-20T03:46:39;0.10;;;0.10;;
60969;SDS011;46841;48.938;9.502;2023-08-20T03:50:03;0.10;;;0.10;;
60969;SDS011;46841;48.938;9.502;2023-08-20T03:53:27;0.10;;;0.10;;
60969;SDS011;46841;48.938;9.502;2023-08-20T03:56:51;0.10;;;0.10;;
60969;SDS011;46841;48.938;9.502;2023-08-20T04:00:15;0.10;;;0.10;;
60969;SDS011;46841;48.938;9.502;2023-08-20T04:03:39;0.10;;;0.10;;
60969;SDS011;46841;48.938;9.502;2023-08-20T04:07:03;0.10;;;0.10;;
60969;SDS011;46841;48.938;9.502;2023-08-20T04:10:27;0.10;;;0.10;;
60969;SDS011;46841;48.938;9.502;2023-08-20T04:13:51;0.10;;;0.10;;
60969;SDS011;46841;48.938;9.502;2023-08-20T04:17:15;0.10;;;0.10;;
60969;SDS011;46841;48.938;9.502;2023-08-20T04:20:39;0.10;;;0.10;;
60969;SDS011;46841;48.938;9.502;2023-08-20T04:24:04;0.10;;;0.10;;
60969;SDS011;46841;48.938;9.502;2023-08-20T04:27:28;0.10;;;0.10;;
60969;SDS011;46841;48.938;9.502;2023-08-20T04:30:53;0.10;;;0.10;;
60969;SDS011;46841;48.938;9.502;2023-08-20T04:34:17;0.10;;;0.10;;
60969;SDS011;46841;48.938;9.502;2023-08-20T04:37:42;0.10;;;0.10;;
60969;SDS011;46841;48.938;9.502;2023-08-20T04:41:06;0.10;;;0.10;;
60969;SDS011;46841;48.938;9.502;2023-08-20T04:44:30;0.10;;;0.10;;
60969;SDS011;46841;48.938;9.502;2023-08-20T04:47:54;0.10;;;0.10;;
60969;SDS011;46841;48.938;9.502;2023-08-20T04:51:18;0.15;;;0.15;;
60969;SDS011;46841;48.938;9.502;2023-08-20T04:54:43;0.10;;;0.10;;
60969;SDS011;46841;48.938;9.502;2023-08-20T04:58:07;0.10;;;0.10;;
60969;SDS011;46841;48.938;9.502;2023-08-20T05:01:56;0.20;;;0.20;;
60969;SDS011;46841;48.938;9.502;2023-08-20T05:05:21;0.20;;;0.20;;
60969;SDS011;46841;48.938;9.502;2023-08-20T05:08:46;0.10;;;0.10;;
60969;SDS011;46841;48.938;9.502;2023-08-20T05:12:09;0.17;;;0.17;;
60969;SDS011;46841;48.938;9.502;2023-08-20T05:15:33;0.10;;;0.10;;
60969;SDS011;46841;48.938;9.502;2023-08-20T05:18:57;0.10;;;0.10;;
60969;SDS011;46841;48.938;9.502;2023-08-20T05:22:21;0.10;;;0.10;;
60969;SDS011;46841;48.938;9.502;2023-08-20T05:25:45;0.10;;;0.10;;
60969;SDS011;46841;48.938;9.502;2023-08-20T05:29:09;0.10;;;0.10;;
60969;SDS011;46841;48.938;9.502;2023-08-20T05:32:34;0.10;;;0.10;;
60969;SDS011;46841;48.938;9.502;2023-08-20T05:35:59;0.15;;;0.15;;
60969;SDS011;46841;48.938;9.502;2023-08-20T05:39:23;0.20;;;0.20;;
60969;SDS011;46841;48.938;9.502;2023-08-20T05:42:47;0.10;;;0.10;;
60969;SDS011;46841;48.938;9.502;2023-08-20T05:46:12;0.10;;;0.10;;
60969;SDS011;46841;48.938;9.502;2023-08-20T05:49:36;0.10;;;0.10;;
60969;SDS011;46841;48.938;9.502;2023-08-20T05:53:00;0.10;;;0.10;;
60969;SDS011;46841;48.938;9.502;2023-08-20T05:56:24;0.10;;;0.10;;
60969;SDS011;46841;48.938;9.502;2023-08-20T05:59:48;0.10;;;0.10;;
60969;SDS011;46841;48.938;9.502;2023-08-20T06:03:12;0.10;;;0.10;;
60969;SDS011;46841;48.938;9.502;2023-08-20T06:06:36;0.10;;;0.10;;
60969;SDS011;46841;48.938;9.502;2023-08-20T06:10:00;0.10;;;0.10;;
60969;SDS011;46841;48.938;9.502;2023-08-20T06:13:24;0.10;;;0.10;;
60969;SDS011;46841;48.938;9.502;2023-08-20T06:16:48;0.10;;;0.10;;
60969;SDS011;46841;48.938;9.502;2023-08-20T06:20:12;0.10;;;0.10;;
60969;SDS011;46841;48.938;9.502;2023-08-20T06:23:36;0.10;;;0.10;;
60969;SDS011;46841;48.938;9.502;2023-08-20T06:27:00;0.10;;;0.10;;
60969;SDS011;46841;48.938;9.502;2023-08-20T06:30:24;0.10;;;0.10;;
60969;SDS011;46841;48.938;9.502;2023-08-20T06:33:48;0.10;;;0.10;;
60969;SDS011;46841;48.938;9.502;2023-08-20T06:37:12;0.10;;;0.10;;
60969;SDS011;46841;48.938;9.502;2023-08-20T06:40:36;0.10;;;0.10;;
60969;SDS011;46841;48.938;9.502;2023-08-20T06:44:00;0.10;;;0.10;;
60969;SDS011;46841;48.938;9.502;2023-08-20T06:47:24;0.10;;;0.10;;
60969;SDS011;46841;48.938;9.502;2023-08-20T06:50:50;0.08;;;0.08;;
60969;SDS011;46841;48.938;9.502;2023-08-20T06:54:14;0.10;;;0.10;;
60969;SDS011;46841;48.938;9.502;2023-08-20T06:57:38;0.00;;;0.00;;
60969;SDS011;46841;48.938;9.502;2023-08-20T07:01:04;0.10;;;0.10;;
60969;SDS011;46841;48.938;9.502;2023-08-20T07:04:28;0.08;;;0.08;;
60969;SDS011;46841;48.938;9.502;2023-08-20T07:07:52;0.00;;;0.00;;
60969;SDS011;46841;48.938;9.502;2023-08-20T07:11:16;0.00;;;0.00;;
60969;SDS011;46841;48.938;9.502;2023-08-20T07:14:40;0.00;;;0.00;;
60969;SDS011;46841;48.938;9.502;2023-08-20T07:18:04;0.00;;;0.00;;
60969;SDS011;46841;48.938;9.502;2023-08-20T07:21:28;0.05;;;0.05;;
60969;SDS011;46841;48.938;9.502;2023-08-20T07:24:52;0.00;;;0.00;;
60969;SDS011;46841;48.938;9.502;2023-08-20T07:28:19;0.00;;;0.00;;
60969;SDS011;46841;48.938;9.502;2023-08-20T07:31:43;0.00;;;0.00;;
60969;SDS011;46841;48.938;9.502;2023-08-20T07:35:07;0.00;;;0.00;;
60969;SDS011;46841;48.938;9.502;2023-08-20T07:38:31;0.00;;;0.00;;
60969;SDS011;46841;48.938;9.502;2023-08-20T07:41:55;0.00;;;0.00;;
60969;SDS011;46841;48.938;9.502;2023-08-20T07:45:19;0.00;;;0.00;;
60969;SDS011;46841;48.938;9.502;2023-08-20T07:48:43;0.00;;;0.00;;
60969;SDS011;46841;48.938;9.502;2023-08-20T07:52:07;0.00;;;0.00;;
60969;SDS011;46841;48.938;9.502;2023-08-20T07:55:31;0.00;;;0.00;;
60969;SDS011;46841;48.938;9.502;2023-08-20T07:58:55;0.00;;;0.00;;
60969;SDS011;46841;48.938;9.502;2023-08-20T08:02:19;0.00;;;0.00;;
60969;SDS011;46841;48.938;9.502;2023-08-20T08:05:46;0.00;;;0.00;;
60969;SDS011;46841;48.938;9.502;2023-08-20T08:09:20;0.00;;;0.00;;
60969;SDS011;46841;48.938;9.502;2023-08-20T08:12:44;0.00;;;0.00;;
60969;SDS011;46841;48.938;9.502;2023-08-20T08:16:08;0.00;;;0.00;;
60969;SDS011;46841;48.938;9.502;2023-08-20T08:19:32;0.00;;;0.00;;
60969;SDS011;46841;48.938;9.502;2023-08-20T08:22:56;0.00;;;0.00;;
60969;SDS011;46841;48.938;9.502;2023-08-20T08:26:20;0.00;;;0.00;;
60969;SDS011;46841;48.938;9.502;2023-08-20T08:29:44;0.00;;;0.00;;
60969;SDS011;46841;48.938;9.502;2023-08-20T08:33:08;0.00;;;0.00;;
60969;SDS011;46841;48.938;9.502;2023-08-20T08:36:32;0.00;;;0.00;;
60969;SDS011;46841;48.938;9.502;2023-08-20T08:39:56;0.00;;;0.00;;
60969;SDS011;46841;48.938;9.502;2023-08-20T08:43:20;0.00;;;0.00;;
60969;SDS011;46841;48.938;9.502;2023-08-20T08:46:46;0.00;;;0.00;;
60969;SDS011;46841;48.938;9.502;2023-08-20T08:50:14;0.00;;;0.00;;
60969;SDS011;46841;48.938;9.502;2023-08-20T08:53:38;0.00;;;0.00;;
60969;SDS011;46841;48.938;9.502;2023-08-20T08:57:02;0.00;;;0.00;;
60969;SDS011;46841;48.938;9.502;2023-08-20T09:00:26;0.00;;;0.00;;
60969;SDS011;46841;48.938;9.502;2023-08-20T09:03:51;0.00;;;0.00;;
60969;SDS011;46841;48.938;9.502;2023-08-20T09:07:15;0.00;;;0.00;;
60969;SDS011;46841;48.938;9.502;2023-08-20T09:10:53;0.00;;;0.00;;
60969;SDS011;46841;48.938;9.502;2023-08-20T09:14:24;0.00;;;0.00;;
60969;SDS011;46841;48.938;9.502;2023-08-20T09:18:00;0.00;;;0.00;;
60969;SDS011;46841;48.938;9.502;2023-08-20T09:21:28;0.00;;;0.00;;
60969;SDS011;46841;48.938;9.502;2023-08-20T09:24:56;0.00;;;0.00;;
60969;SDS011;46841;48.938;9.502;2023-08-20T09:28:20;0.00;;;0.00;;
60969;SDS011;46841;48.938;9.502;2023-08-20T09:31:44;0.00;;;0.00;;
60969;SDS011;46841;48.938;9.502;2023-08-20T09:35:17;0.00;;;0.00;;
60969;SDS011;46841;48.938;9.502;2023-08-20T09:38:41;0.00;;;0.00;;
60969;SDS011;46841;48.938;9.502;2023-08-20T09:42:06;0.00;;;0.00;;
60969;SDS011;46841;48.938;9.502;2023-08-20T09:45:33;0.00;;;0.00;;
60969;SDS011;46841;48.938;9.502;2023-08-20T09:48:59;0.00;;;0.00;;
60969;SDS011;46841;48.938;9.502;2023-08-20T09:52:35;0.00;;;0.00;;
60969;SDS011;46841;48.938;9.502;2023-08-20T09:56:13;0.00;;;0.00;;
60969;SDS011;46841;48.938;9.502;2023-08-20T09:59:59;0.00;;;0.00;;
60969;SDS011;46841;48.938;9.502;2023-08-20T10:03:24;0.00;;;0.00;;
60969;SDS011;46841;48.938;9.502;2023-08-20T10:06:49;0.00;;;0.00;;
60969;SDS011;46841;48.938;9.502;2023-08-20T10:10:14;0.00;;;0.00;;
60969;SDS011;46841;48.938;9.502;2023-08-20T10:13:38;0.00;;;0.00;;
60969;SDS011;46841;48.938;9.502;2023-08-20T10:17:06;0.00;;;0.00;;
60969;SDS011;46841;48.938;9.502;2023-08-20T10:20:32;0.00;;;0.00;;
60969;SDS011;46841;48.938;9.502;2023-08-20T10:23:56;0.00;;;0.00;;
60969;SDS011;46841;48.938;9.502;2023-08-20T10:27:26;0.00;;;0.00;;
60969;SDS011;46841;48.938;9.502;2023-08-20T10:34:36;0.00;;;0.00;;
60969;SDS011;46841;48.938;9.502;2023-08-20T10:38:07;0.00;;;0.00;;
60969;SDS011;46841;48.938;9.502;2023-08-20T10:41:44;0.00;;;0.00;;
60969;SDS011;46841;48.938;9.502;2023-08-20T10:45:09;0.00;;;0.00;;
60969;SDS011;46841;48.938;9.502;2023-08-20T10:48:41;0.00;;;0.00;;
60969;SDS011;46841;48.938;9.502;2023-08-20T10:52:07;0.00;;;0.00;;
60969;SDS011;46841;48.938;9.502;2023-08-20T10:55:31;0.00;;;0.00;;
60969;SDS011;46841;48.938;9.502;2023-08-20T10:59:08;0.00;;;0.00;;
60969;SDS011;46841;48.938;9.502;2023-08-20T11:02:36;0.00;;;0.00;;
60969;SDS011;46841;48.938;9.502;2023-08-20T11:09:26;0.00;;;0.00;;
60969;SDS011;46841;48.938;9.502;2023-08-20T11:12:51;0.00;;;0.00;;
60969;SDS011;46841;48.938;9.502;2023-08-20T11:16:15;0.00;;;0.00;;
60969;SDS011;46841;48.938;9.502;2023-08-20T11:19:39;0.00;;;0.00;;
60969;SDS011;46841;48.938;9.502;2023-08-20T11:23:05;0.00;;;0.00;;
60969;SDS011;46841;48.938;9.502;2023-08-20T11:26:29;0.00;;;0.00;;
60969;SDS011;46841;48.938;9.502;2023-08-20T11:29:53;0.00;;;0.00;;
60969;SDS011;46841;48.938;9.502;2023-08-20T11:33:18;0.00;;;0.00;;
60969;SDS011;46841;48.938;9.502;2023-08-20T11:36:43;0.00;;;0.00;;
60969;SDS011;46841;48.938;9.502;2023-08-20T11:40:07;0.00;;;0.00;;
60969;SDS011;46841;48.938;9.502;2023-08-20T11:43:31;0.00;;;0.00;;
60969;SDS011;46841;48.938;9.502;2023-08-20T11:47:16;0.00;;;0.00;;
60969;SDS011;46841;48.938;9.502;2023-08-20T11:50:41;0.00;;;0.00;;
60969;SDS011;46841;48.938;9.502;2023-08-20T11:54:14;0.00;;;0.00;;
60969;SDS011;46841;48.938;9.502;2023-08-20T11:57:38;0.00;;;0.00;;
60969;SDS011;46841;48.938;9.502;2023-08-20T12:01:06;0.00;;;0.00;;
60969;SDS011;46841;48.938;9.502;2023-08-20T12:04:31;0.00;;;0.00;;
60969;SDS011;46841;48.938;9.502;2023-08-20T12:08:00;0.00;;;0.00;;
60969;SDS011;46841;48.938;9.502;2023-08-20T12:11:27;0.00;;;0.00;;
60969;SDS011;46841;48.938;9.502;2023-08-20T12:14:51;0.00;;;0.00;;
60969;SDS011;46841;48.938;9.502;2023-08-20T12:18:16;0.00;;;0.00;;
60969;SDS011;46841;48.938;9.502;2023-08-20T12:21:40;0.00;;;0.00;;
60969;SDS011;46841;48.938;9.502;2023-08-20T12:25:05;0.00;;;0.00;;
60969;SDS011;46841;48.938;9.502;2023-08-20T12:28:29;0.00;;;0.00;;
60969;SDS011;46841;48.938;9.502;2023-08-20T12:31:53;0.00;;;0.00;;
60969;SDS011;46841;48.938;9.502;2023-08-20T12:35:17;0.00;;;0.00;;
60969;SDS011;46841;48.938;9.502;2023-08-20T12:38:41;0.00;;;0.00;;
60969;SDS011;46841;48.938;9.502;2023-08-20T12:42:05;0.00;;;0.00;;
60969;SDS011;46841;48.938;9.502;2023-08-20T12:45:29;0.00;;;0.00;;
60969;SDS011;46841;48.938;9.502;2023-08-20T12:48:53;0.00;;;0.00;;
60969;SDS011;46841;48.938;9.502;2023-08-20T12:52:17;0.00;;;0.00;;
60969;SDS011;46841;48.938;9.502;2023-08-20T12:55:41;0.00;;;0.00;;
60969;SDS011;46841;48.938;9.502;2023-08-20T12:59:05;0.00;;;0.00;;
60969;SDS011;46841;48.938;9.502;2023-08-20T13:02:36;0.00;;;0.00;;
60969;SDS011;46841;48.938;9.502;2023-08-20T13:06:00;0.00;;;0.00;;
60969;SDS011;46841;48.938;9.502;2023-08-20T13:09:24;0.00;;;0.00;;
60969;SDS011;46841;48.938;9.502;2023-08-20T13:12:50;0.00;;;0.00;;
60969;SDS011;46841;48.938;9.502;2023-08-20T13:16:14;0.00;;;0.00;;
60969;SDS011;46841;48.938;9.502;2023-08-20T13:19:38;0.00;;;0.00;;
60969;SDS011;46841;48.938;9.502;2023-08-20T13:23:02;0.00;;;0.00;;
60969;SDS011;46841;48.938;9.502;2023-08-20T13:26:27;0.00;;;0.00;;
60969;SDS011;46841;48.938;9.502;2023-08-20T13:29:51;0.00;;;0.00;;
60969;SDS011;46841;48.938;9.502;2023-08-20T13:33:15;0.00;;;0.00;;
60969;SDS011;46841;48.938;9.502;2023-08-20T13:36:39;0.00;;;0.00;;
60969;SDS011;46841;48.938;9.502;2023-08-20T13:40:03;0.00;;;0.00;;
60969;SDS011;46841;48.938;9.502;2023-08-20T13:43:27;0.00;;;0.00;;
60969;SDS011;46841;48.938;9.502;2023-08-20T13:46:51;0.00;;;0.00;;
60969;SDS011;46841;48.938;9.502;2023-08-20T13:50:15;0.00;;;0.00;;
60969;SDS011;46841;48.938;9.502;2023-08-20T13:53:39;0.00;;;0.00;;
60969;SDS011;46841;48.938;9.502;2023-08-20T13:57:03;0.00;;;0.00;;
60969;SDS011;46841;48.938;9.502;2023-08-20T14:00:27;0.00;;;0.00;;
60969;SDS011;46841;48.938;9.502;2023-08-20T14:03:51;0.00;;;0.00;;
60969;SDS011;46841;48.938;9.502;2023-08-20T14:07:16;0.00;;;0.00;;
60969;SDS011;46841;48.938;9.502;2023-08-20T14:10:39;0.00;;;0.00;;
60969;SDS011;46841;48.938;9.502;2023-08-20T14:14:04;0.00;;;0.00;;
60969;SDS011;46841;48.938;9.502;2023-08-20T14:17:28;0.00;;;0.00;;
60969;SDS011;46841;48.938;9.502;2023-08-20T14:20:52;0.00;;;0.00;;
60969;SDS011;46841;48.938;9.502;2023-08-20T14:24:16;0.00;;;0.00;;
60969;SDS011;46841;48.938;9.502;2023-08-20T14:27:40;0.00;;;0.00;;
60969;SDS011;46841;48.938;9.502;2023-08-20T14:31:04;0.00;;;0.00;;
60969;SDS011;46841;48.938;9.502;2023-08-20T14:34:28;0.00;;;0.00;;
60969;SDS011;46841;48.938;9.502;2023-08-20T14:37:53;0.00;;;0.00;;
60969;SDS011;46841;48.938;9.502;2023-08-20T14:41:17;0.00;;;0.00;;
60969;SDS011;46841;48.938;9.502;2023-08-20T14:44:41;0.00;;;0.00;;
60969;SDS011;46841;48.938;9.502;2023-08-20T14:48:05;0.00;;;0.00;;
60969;SDS011;46841;48.938;9.502;2023-08-20T14:51:29;0.00;;;0.00;;
60969;SDS011;46841;48.938;9.502;2023-08-20T14:54:53;0.00;;;0.00;;
60969;SDS011;46841;48.938;9.502;2023-08-20T14:58:17;0.00;;;0.00;;
60969;SDS011;46841;48.938;9.502;2023-08-20T15:01:41;0.00;;;0.00;;
60969;SDS011;46841;48.938;9.502;2023-08-20T15:05:05;0.00;;;0.00;;
60969;SDS011;46841;48.938;9.502;2023-08-20T15:08:29;0.00;;;0.00;;
60969;SDS011;46841;48.938;9.502;2023-08-20T15:11:53;0.00;;;0.00;;
60969;SDS011;46841;48.938;9.502;2023-08-20T15:15:17;0.00;;;0.00;;
60969;SDS011;46841;48.938;9.502;2023-08-20T15:18:41;0.00;;;0.00;;
60969;SDS011;46841;48.938;9.502;2023-08-20T15:22:05;0.00;;;0.00;;
60969;SDS011;46841;48.938;9.502;2023-08-20T15:25:29;0.00;;;0.00;;
60969;SDS011;46841;48.938;9.502;2023-08-20T15:28:53;0.00;;;0.00;;
60969;SDS011;46841;48.938;9.502;2023-08-20T15:32:17;0.00;;;0.00;;
60969;SDS011;46841;48.938;9.502;2023-08-20T15:35:41;0.00;;;0.00;;
60969;SDS011;46841;48.938;9.502;2023-08-20T15:39:05;0.00;;;0.00;;
60969;SDS011;46841;48.938;9.502;2023-08-20T15:42:32;0.00;;;0.00;;
60969;SDS011;46841;48.938;9.502;2023-08-20T15:45:57;0.00;;;0.00;;
60969;SDS011;46841;48.938;9.502;2023-08-20T15:49:21;0.00;;;0.00;;
60969;SDS011;46841;48.938;9.502;2023-08-20T15:52:45;0.00;;;0.00;;
60969;SDS011;46841;48.938;9.502;2023-08-20T15:56:09;0.00;;;0.00;;
60969;SDS011;46841;48.938;9.502;2023-08-20T15:59:33;0.00;;;0.00;;
60969;SDS011;46841;48.938;9.502;2023-08-20T16:03:00;0.00;;;0.00;;
60969;SDS011;46841;48.938;9.502;2023-08-20T16:06:24;0.00;;;0.00;;
60969;SDS011;46841;48.938;9.502;2023-08-20T16:09:48;0.00;;;0.00;;
60969;SDS011;46841;48.938;9.502;2023-08-20T16:13:12;0.00;;;0.00;;
60969;SDS011;46841;48.938;9.502;2023-08-20T16:16:36;0.00;;;0.00;;
60969;SDS011;46841;48.938;9.502;2023-08-20T16:20:00;0.00;;;0.00;;
60969;SDS011;46841;48.938;9.502;2023-08-20T16:23:24;0.00;;;0.00;;
60969;SDS011;46841;48.938;9.502;2023-08-20T16:26:48;0.00;;;0.00;;
60969;SDS011;46841;48.938;9.502;2023-08-20T16:30:12;0.00;;;0.00;;
60969;SDS011;46841;48.938;9.502;2023-08-20T16:33:36;0.00;;;0.00;;
60969;SDS011;46841;48.938;9.502;2023-08-20T16:37:00;0.00;;;0.00;;
60969;SDS011;46841;48.938;9.502;2023-08-20T16:40:24;0.00;;;0.00;;
60969;SDS011;46841;48.938;9.502;2023-08-20T16:43:48;0.00;;;0.00;;
60969;SDS011;46841;48.938;9.502;2023-08-20T16:47:12;0.00;;;0.00;;
60969;SDS011;46841;48.938;9.502;2023-08-20T16:50:36;0.00;;;0.00;;
60969;SDS011;46841;48.938;9.502;2023-08-20T16:54:00;0.00;;;0.00;;
60969;SDS011;46841;48.938;9.502;2023-08-20T16:57:24;0.00;;;0.00;;
60969;SDS011;46841;48.938;9.502;2023-08-20T17:00:48;0.00;;;0.00;;
60969;SDS011;46841;48.938;9.502;2023-08-20T17:04:12;0.00;;;0.00;;
60969;SDS011;46841;48.938;9.502;2023-08-20T17:07:37;0.00;;;0.00;;
60969;SDS011;46841;48.938;9.502;2023-08-20T17:14:24;0.00;;;0.00;;
60969;SDS011;46841;48.938;9.502;2023-08-20T17:17:51;0.00;;;0.00;;
60969;SDS011;46841;48.938;9.502;2023-08-20T17:21:15;0.00;;;0.00;;
60969;SDS011;46841;48.938;9.502;2023-08-20T17:24:39;0.00;;;0.00;;
60969;SDS011;46841;48.938;9.502;2023-08-20T17:28:03;0.00;;;0.00;;
60969;SDS011;46841;48.938;9.502;2023-08-20T17:31:27;0.00;;;0.00;;
60969;SDS011;46841;48.938;9.502;2023-08-20T17:34:51;0.00;;;0.00;;
60969;SDS011;46841;48.938;9.502;2023-08-20T17:38:15;0.00;;;0.00;;
60969;SDS011;46841;48.938;9.502;2023-08-20T17:41:40;0.00;;;0.00;;
60969;SDS011;46841;48.938;9.502;2023-08-20T17:45:04;0.00;;;0.00;;
60969;SDS011;46841;48.938;9.502;2023-08-20T17:51:53;0.00;;;0.00;;
60969;SDS011;46841;48.938;9.502;2023-08-20T17:55:16;0.00;;;0.00;;
60969;SDS011;46841;48.938;9.502;2023-08-20T17:58:40;0.00;;;0.00;;
60969;SDS011;46841;48.938;9.502;2023-08-20T18:02:04;0.00;;;0.00;;
60969;SDS011;46841;48.938;9.502;2023-08-20T18:05:28;0.00;;;0.00;;
60969;SDS011;46841;48.938;9.502;2023-08-20T18:08:52;0.00;;;0.00;;
60969;SDS011;46841;48.938;9.502;2023-08-20T18:12:16;0.00;;;0.00;;
60969;SDS011;46841;48.938;9.502;2023-08-20T18:15:40;0.00;;;0.00;;
60969;SDS011;46841;48.938;9.502;2023-08-20T18:19:04;0.00;;;0.00;;
60969;SDS011;46841;48.938;9.502;2023-08-20T18:22:29;0.00;;;0.00;;
60969;SDS011;46841;48.938;9.502;2023-08-20T18:25:53;0.00;;;0.00;;
60969;SDS011;46841;48.938;9.502;2023-08-20T18:29:17;0.00;;;0.00;;
60969;SDS011;46841;48.938;9.502;2023-08-20T18:32:41;0.00;;;0.00;;
60969;SDS011;46841;48.938;9.502;2023-08-20T18:36:07;0.00;;;0.00;;
60969;SDS011;46841;48.938;9.502;2023-08-20T18:39:31;0.00;;;0.00;;
60969;SDS011;46841;48.938;9.502;2023-08-20T18:42:55;0.00;;;0.00;;
60969;SDS011;46841;48.938;9.502;2023-08-20T18:46:19;0.00;;;0.00;;
60969;SDS011;46841;48.938;9.502;2023-08-20T18:49:43;0.00;;;0.00;;
60969;SDS011;46841;48.938;9.502;2023-08-20T18:53:07;0.00;;;0.00;;
60969;SDS011;46841;48.938;9.502;2023-08-20T18:56:31;0.00;;;0.00;;
60969;SDS011;46841;48.938;9.502;2023-08-20T18:59:55;0.00;;;0.00;;
60969;SDS011;46841;48.938;9.502;2023-08-20T19:03:19;0.00;;;0.00;;
60969;SDS011;46841;48.938;9.502;2023-08-20T19:06:43;0.00;;;0.00;;
60969;SDS011;46841;48.938;9.502;2023-08-20T19:10:12;0.00;;;0.00;;
60969;SDS011;46841;48.938;9.502;2023-08-20T19:13:36;0.00;;;0.00;;
60969;SDS011;46841;48.938;9.502;2023-08-20T19:17:00;0.00;;;0.00;;
60969;SDS011;46841;48.938;9.502;2023-08-20T19:20:25;0.00;;;0.00;;
60969;SDS011;46841;48.938;9.502;2023-08-20T19:23:49;0.00;;;0.00;;
60969;SDS011;46841;48.938;9.502;2023-08-20T19:27:13;0.00;;;0.00;;
60969;SDS011;46841;48.938;9.502;2023-08-20T19:30:44;0.00;;;0.00;;
60969;SDS011;46841;48.938;9.502;2023-08-20T19:34:09;0.00;;;0.00;;
60969;SDS011;46841;48.938;9.502;2023-08-20T19:37:33;0.00;;;0.00;;
60969;SDS011;46841;48.938;9.502;2023-08-20T19:40:57;0.00;;;0.00;;
60969;SDS011;46841;48.938;9.502;2023-08-20T19:44:21;0.00;;;0.00;;
60969;SDS011;46841;48.938;9.502;2023-08-20T19:47:45;0.00;;;0.00;;
60969;SDS011;46841;48.938;9.502;2023-08-20T19:51:09;0.00;;;0.00;;
60969;SDS011;46841;48.938;9.502;2023-08-20T19:54:33;0.00;;;0.00;;
60969;SDS011;46841;48.938;9.502;2023-08-20T19:57:57;0.00;;;0.00;;
60969;SDS011;46841;48.938;9.502;2023-08-20T20:01:21;0.00;;;0.00;;
60969;SDS011;46841;48.938;9.502;2023-08-20T20:04:46;0.00;;;0.00;;
60969;SDS011;46841;48.938;9.502;2023-08-20T20:08:10;0.00;;;0.00;;
60969;SDS011;46841;48.938;9.502;2023-08-20T20:11:35;0.10;;;0.10;;
60969;SDS011;46841;48.938;9.502;2023-08-20T20:14:59;0.00;;;0.00;;
60969;SDS011;46841;48.938;9.502;2023-08-20T20:18:23;0.10;;;0.10;;
60969;SDS011;46841;48.938;9.502;2023-08-20T20:21:47;0.00;;;0.00;;
60969;SDS011;46841;48.938;9.502;2023-08-20T20:25:11;0.00;;;0.00;;
60969;SDS011;46841;48.938;9.502;2023-08-20T20:28:35;0.00;;;0.00;;
60969;SDS011;46841;48.938;9.502;2023-08-20T20:32:00;0.00;;;0.00;;
60969;SDS011;46841;48.938;9.502;2023-08-20T20:35:24;0.10;;;0.10;;
60969;SDS011;46841;48.938;9.502;2023-08-20T20:38:48;0.10;;;0.10;;
60969;SDS011;46841;48.938;9.502;2023-08-20T20:42:12;0.10;;;0.10;;
60969;SDS011;46841;48.938;9.502;2023-08-20T20:45:36;0.10;;;0.10;;
60969;SDS011;46841;48.938;9.502;2023-08-20T20:49:00;0.10;;;0.10;;
60969;SDS011;46841;48.938;9.502;2023-08-20T20:52:24;0.00;;;0.00;;
60969;SDS011;46841;48.938;9.502;2023-08-20T20:55:48;0.10;;;0.10;;